createdAt,value
2024-02-15T00:00:28.528Z,2.20
2024-02-15T00:02:31.930Z,2.20
2024-02-15T00:04:35.569Z,2.20
2024-02-15T00:06:39.833Z,4.40
2024-02-15T00:08:42.799Z,3.20
2024-02-15T00:10:47.214Z,2.80
2024-02-15T00:12:52.206Z,2.50
2024-02-15T00:14:54.669Z,2.30
2024-02-15T00:16:57.996Z,2.47
2024-02-15T00:19:01.554Z,2.45
2024-02-15T00:21:05.054Z,1.88
2024-02-15T00:23:09.360Z,2.38
2024-02-15T00:25:12.595Z,2.10
2024-02-15T00:27:16.515Z,2.50
2024-02-15T00:29:19.520Z,2.20
2024-02-15T00:31:22.430Z,1.92
2024-02-15T00:33:25.322Z,1.80
2024-02-15T00:35:28.785Z,2.10
2024-02-15T00:37:32.027Z,2.22
2024-02-15T00:39:36.176Z,2.55
2024-02-15T00:41:43.214Z,2.35
2024-02-15T00:43:46.457Z,2.05
2024-02-15T00:45:49.561Z,2.15
2024-02-15T00:47:51.547Z,2.22
2024-02-15T00:49:54.656Z,1.88
2024-02-15T00:51:57.574Z,2.30
2024-02-15T00:53:59.501Z,1.92
2024-02-15T00:56:04.121Z,2.00
2024-02-15T00:58:07.031Z,2.50
2024-02-15T01:00:11.319Z,2.60
2024-02-15T01:02:13.883Z,1.83
2024-02-15T01:04:17.555Z,1.98
2024-02-15T01:06:20.502Z,2.08
2024-02-15T01:08:23.417Z,2.28
2024-02-15T01:10:27.041Z,2.30
2024-02-15T01:12:31.293Z,2.30
2024-02-15T01:14:34.463Z,1.80
2024-02-15T01:16:37.955Z,2.17
2024-02-15T01:18:41.059Z,2.72
2024-02-15T01:20:44.088Z,2.38
2024-02-15T01:22:46.945Z,2.20
2024-02-15T01:24:50.064Z,2.53
2024-02-15T01:26:52.882Z,2.50
2024-02-15T01:28:57.429Z,2.40
2024-02-15T01:31:00.309Z,2.38
2024-02-15T01:33:03.303Z,2.80
2024-02-15T01:35:05.818Z,2.50
2024-02-15T01:37:08.696Z,2.40
2024-02-15T01:39:12.086Z,2.35
2024-02-15T01:41:15.070Z,2.30
2024-02-15T01:43:18.134Z,2.20
2024-02-15T01:45:22.815Z,2.25
2024-02-15T01:47:25.693Z,2.38
2024-02-15T01:49:30.190Z,2.28
2024-02-15T01:51:34.575Z,2.70
2024-02-15T01:53:37.686Z,2.28
2024-02-15T01:55:41.809Z,2.42
2024-02-15T01:57:46.796Z,2.22
2024-02-15T01:59:52.930Z,2.10
2024-02-15T02:02:02.206Z,2.50
2024-02-15T02:04:05.590Z,2.20
2024-02-15T02:06:10.084Z,2.60
2024-02-15T02:08:13.188Z,2.33
2024-02-15T02:10:16.734Z,2.40
2024-02-15T02:12:20.336Z,2.35
2024-02-15T02:14:23.620Z,2.40
2024-02-15T02:16:26.302Z,2.65
2024-02-15T02:18:30.652Z,2.63
2024-02-15T02:20:32.684Z,2.60
2024-02-15T02:22:37.547Z,2.42
2024-02-15T02:24:46.509Z,2.75
2024-02-15T02:26:51.553Z,2.40
2024-02-15T02:28:54.539Z,2.58
2024-02-15T02:30:57.737Z,2.53
2024-02-15T02:33:01.146Z,3.00
2024-02-15T02:35:04.650Z,2.70
2024-02-15T02:37:08.958Z,2.60
2024-02-15T02:39:11.831Z,2.78
2024-02-15T02:41:14.704Z,3.00
2024-02-15T02:43:18.895Z,2.97
2024-02-15T02:45:23.901Z,2.80
2024-02-15T02:47:27.306Z,2.92
2024-02-15T02:49:30.178Z,2.70
2024-02-15T02:51:33.089Z,2.65
2024-02-15T02:53:36.781Z,2.90
2024-02-15T02:55:39.637Z,2.80
2024-02-15T02:57:42.686Z,3.15
2024-02-15T02:59:48.269Z,3.20
2024-02-15T03:01:51.127Z,2.45
2024-02-15T03:03:56.291Z,3.10
2024-02-15T03:05:59.803Z,2.88
2024-02-15T03:08:01.698Z,3.15
2024-02-15T03:10:05.832Z,2.95
2024-02-15T03:12:10.873Z,2.58
2024-02-15T03:14:14.111Z,2.50
2024-02-15T03:16:17.800Z,2.60
2024-02-15T03:18:20.655Z,3.08
2024-02-15T03:20:25.257Z,2.85
2024-02-15T03:22:30.360Z,3.65
2024-02-15T03:24:33.211Z,8.70
2024-02-15T03:26:38.286Z,12.20
2024-02-15T03:28:41.290Z,8.57
2024-02-15T03:30:44.421Z,6.93
2024-02-15T03:32:49.449Z,3.05
2024-02-15T03:34:52.620Z,2.90
2024-02-15T03:36:55.627Z,5.60
2024-02-15T03:38:57.558Z,2.83
2024-02-15T03:41:00.842Z,3.42
2024-02-15T03:43:07.801Z,2.80
2024-02-15T03:45:12.146Z,3.38
2024-02-15T03:47:16.031Z,3.95
2024-02-15T03:49:20.314Z,4.60
2024-02-15T03:51:25.553Z,2.78
2024-02-15T03:53:31.380Z,3.00
2024-02-15T03:55:36.424Z,3.60
2024-02-15T03:57:41.988Z,3.30
2024-02-15T03:59:47.108Z,3.15
2024-02-15T04:01:50.036Z,3.80
2024-02-15T04:03:53.053Z,2.85
2024-02-15T04:05:57.429Z,4.10
2024-02-15T04:08:03.373Z,3.35
2024-02-15T04:10:07.612Z,2.95
2024-02-15T04:12:10.982Z,3.05
2024-02-15T04:14:13.786Z,2.63
2024-02-15T04:16:15.706Z,2.38
2024-02-15T04:18:18.532Z,3.10
2024-02-15T04:20:22.546Z,2.47
2024-02-15T04:22:26.747Z,2.88
2024-02-15T04:24:30.834Z,2.47
2024-02-15T04:26:34.746Z,2.25
2024-02-15T04:28:37.628Z,3.20
2024-02-15T04:30:41.684Z,2.50
2024-02-15T04:32:44.728Z,2.20
2024-02-15T04:34:48.266Z,2.40
2024-02-15T04:36:52.081Z,2.50
2024-02-15T04:38:56.296Z,2.40
2024-02-15T04:41:01.344Z,2.47
2024-02-15T04:43:05.393Z,2.38
2024-02-15T04:45:09.767Z,2.38
2024-02-15T04:47:12.794Z,2.33
2024-02-15T04:49:15.434Z,2.55
2024-02-15T04:51:21.004Z,2.67
2024-02-15T04:53:23.882Z,3.40
2024-02-15T04:55:28.286Z,2.90
2024-02-15T04:57:31.308Z,2.70
2024-02-15T04:59:34.087Z,2.47
2024-02-15T05:01:37.702Z,2.30
2024-02-15T05:03:40.559Z,2.42
2024-02-15T05:05:42.958Z,2.53
2024-02-15T05:07:46.070Z,3.00
2024-02-15T05:09:48.955Z,2.65
2024-02-15T05:11:54.035Z,2.42
2024-02-15T05:13:56.789Z,2.88
2024-02-15T05:15:59.711Z,4.72
2024-02-15T05:18:03.310Z,3.40
2024-02-15T05:20:12.056Z,3.17
2024-02-15T05:22:16.454Z,2.75
2024-02-15T05:24:21.199Z,2.90
2024-02-15T05:26:24.637Z,2.95
2024-02-15T05:28:30.905Z,3.20
2024-02-15T05:30:34.738Z,2.70
2024-02-15T05:32:42.601Z,6.47
2024-02-15T05:34:45.889Z,8.50
2024-02-15T05:36:49.361Z,13.23
2024-02-15T05:38:53.357Z,10.05
2024-02-15T05:40:56.574Z,13.77
2024-02-15T05:43:00.103Z,9.88
2024-02-15T05:45:34.543Z,8.35
2024-02-15T05:47:37.773Z,7.13
2024-02-15T05:49:40.527Z,6.60
2024-02-15T05:51:45.300Z,5.10
2024-02-15T05:53:48.409Z,4.88
2024-02-15T05:55:51.208Z,4.78
2024-02-15T05:57:54.559Z,4.45
2024-02-15T06:00:04.332Z,3.97
2024-02-15T06:02:09.298Z,4.45
2024-02-15T06:04:12.140Z,4.10
2024-02-15T06:06:15.207Z,4.53
2024-02-15T06:08:18.639Z,3.45
2024-02-15T06:10:21.365Z,3.83
2024-02-15T06:12:23.165Z,4.05
2024-02-15T06:14:26.436Z,3.45
2024-02-15T06:16:29.444Z,3.42
2024-02-15T06:18:34.488Z,4.18
2024-02-15T06:20:37.587Z,4.80
2024-02-15T06:22:40.854Z,4.45
2024-02-15T06:24:44.017Z,3.97
2024-02-15T06:26:48.833Z,4.30
2024-02-15T06:29:17.778Z,3.90
2024-02-15T06:31:40.733Z,4.20
2024-02-15T06:34:03.449Z,4.28
2024-02-15T06:36:25.176Z,4.65
2024-02-15T06:38:45.322Z,4.80
2024-02-15T06:40:48.200Z,5.18
2024-02-15T06:42:51.039Z,4.35
2024-02-15T06:44:53.826Z,5.15
2024-02-15T06:46:55.583Z,4.85
2024-02-15T06:48:59.926Z,5.93
2024-02-15T06:51:04.319Z,5.68
2024-02-15T06:53:07.189Z,5.85
2024-02-15T06:55:13.056Z,4.65
2024-02-15T06:57:17.026Z,5.93
2024-02-15T06:59:20.536Z,5.13
2024-02-15T07:01:26.318Z,5.40
2024-02-15T07:03:31.047Z,5.43
2024-02-15T07:05:35.328Z,5.13
2024-02-15T07:07:40.106Z,6.28
2024-02-15T07:09:42.886Z,6.25
2024-02-15T07:11:51.370Z,6.00
2024-02-15T07:13:56.176Z,5.47
2024-02-15T07:15:59.063Z,5.68
2024-02-15T07:18:02.289Z,5.40
2024-02-15T07:20:06.873Z,5.28
2024-02-15T07:22:10.598Z,4.95
2024-02-15T07:24:13.652Z,5.78
2024-02-15T07:26:16.401Z,6.13
2024-02-15T07:28:20.385Z,5.78
2024-02-15T07:30:26.128Z,6.20
2024-02-15T07:32:29.340Z,5.60
2024-02-15T07:34:32.189Z,6.03
2024-02-15T07:36:34.929Z,6.63
2024-02-15T07:38:39.052Z,7.22
2024-02-15T07:40:40.938Z,7.75
2024-02-15T07:42:43.992Z,6.72
2024-02-15T07:44:46.763Z,6.40
2024-02-15T07:46:51.501Z,6.85
2024-02-15T07:48:54.409Z,7.03
2024-02-15T07:50:59.481Z,6.00
2024-02-15T07:53:02.230Z,4.97
2024-02-15T07:55:10.050Z,4.90
2024-02-15T07:57:13.171Z,4.95
2024-02-15T07:59:17.842Z,4.90
2024-02-15T08:01:22.511Z,4.65
2024-02-15T08:03:26.076Z,4.97
2024-02-15T08:05:29.041Z,5.18
2024-02-15T08:07:35.838Z,4.82
2024-02-15T08:09:41.976Z,5.05
2024-02-15T08:11:47.837Z,5.25
2024-02-15T08:13:55.575Z,5.38
2024-02-15T08:15:58.707Z,5.13
2024-02-15T08:18:06.256Z,5.88
2024-02-15T08:20:10.818Z,5.78
2024-02-15T08:22:13.616Z,5.20
2024-02-15T08:24:15.357Z,5.65
2024-02-15T08:26:18.813Z,5.75
2024-02-15T08:28:25.590Z,5.90
2024-02-15T08:30:28.898Z,5.88
2024-02-15T08:32:31.804Z,5.60
2024-02-15T08:34:35.272Z,5.40
2024-02-15T08:36:38.198Z,5.35
2024-02-15T08:38:42.502Z,5.43
2024-02-15T08:40:46.903Z,5.78
2024-02-15T08:42:49.721Z,5.50
2024-02-15T08:44:54.121Z,4.65
2024-02-15T08:46:57.551Z,5.65
2024-02-15T08:51:07.078Z,13.70
2024-02-15T08:53:10.067Z,5.65
2024-02-15T08:55:15.522Z,17.20
2024-02-15T08:57:20.337Z,7.65
2024-02-15T08:59:23.300Z,6.05
2024-02-15T09:01:27.423Z,10.18
2024-02-15T09:03:29.363Z,10.07
2024-02-15T09:05:32.191Z,36.90
2024-02-15T09:07:35.026Z,26.98
2024-02-15T09:09:37.843Z,11.98
2024-02-15T09:11:40.678Z,9.25
2024-02-15T09:13:43.486Z,7.05
2024-02-15T09:15:48.433Z,11.40
2024-02-15T09:17:52.048Z,11.07
2024-02-15T09:19:55.993Z,6.53
2024-02-15T09:21:58.890Z,3.90
2024-02-15T09:24:01.633Z,3.47
2024-02-15T09:26:05.233Z,2.75
2024-02-15T09:28:08.169Z,2.70
2024-02-15T09:30:13.145Z,2.80
2024-02-15T09:32:16.082Z,2.60
2024-02-15T09:34:20.331Z,2.88
2024-02-15T09:36:22.314Z,2.92
2024-02-15T09:38:26.363Z,2.60
2024-02-15T09:40:30.915Z,2.85
2024-02-15T09:42:35.796Z,2.60
2024-02-15T09:44:47.659Z,3.35
2024-02-15T09:46:58.675Z,7.17
2024-02-15T09:49:01.888Z,53.25
2024-02-15T09:51:07.115Z,10.80
2024-02-15T09:53:10.407Z,6.07
2024-02-15T09:55:14.307Z,4.33
2024-02-15T09:57:19.278Z,3.30
2024-02-15T09:59:22.433Z,3.90
2024-02-15T10:01:27.162Z,1.80
2024-02-15T10:03:32.433Z,1.70
2024-02-15T10:05:35.432Z,2.40
2024-02-15T10:07:39.826Z,2.50
2024-02-15T10:09:44.049Z,2.67
2024-02-15T10:11:57.881Z,2.60
2024-02-15T10:14:12.625Z,3.00
2024-02-15T10:16:18.217Z,2.70
2024-02-15T10:18:23.525Z,3.30
2024-02-15T10:20:27.232Z,3.60
2024-02-15T10:22:30.144Z,3.80
2024-02-15T10:24:33.338Z,3.87
2024-02-15T10:26:37.371Z,4.30
2024-02-15T10:28:40.377Z,4.17
2024-02-15T10:30:46.361Z,3.93
2024-02-15T10:32:50.464Z,4.17
2024-02-15T10:34:54.941Z,4.03
2024-02-15T10:37:12.218Z,4.20
2024-02-15T10:39:18.823Z,5.30
2024-02-15T10:41:24.000Z,6.20
2024-02-15T10:43:27.197Z,7.40
2024-02-15T10:45:31.935Z,6.70
2024-02-15T10:47:38.175Z,5.37
2024-02-15T10:49:44.374Z,4.70
2024-02-15T10:51:57.461Z,4.13
2024-02-15T10:54:04.633Z,3.87
2024-02-15T10:56:20.348Z,3.77
2024-02-15T10:58:30.395Z,2.90
2024-02-15T11:00:38.519Z,3.10
2024-02-15T11:02:46.301Z,3.00
2024-02-15T11:04:52.125Z,3.17
2024-02-15T11:06:57.643Z,3.13
2024-02-15T11:09:01.352Z,3.27
2024-02-15T11:11:06.155Z,2.70
2024-02-15T11:13:10.002Z,2.67
2024-02-15T11:15:14.533Z,3.23
2024-02-15T11:17:49.629Z,2.97
2024-02-15T11:19:53.795Z,2.73
2024-02-15T11:21:58.064Z,2.40
2024-02-15T11:24:30.580Z,2.70
2024-02-15T11:26:49.441Z,2.83
2024-02-15T11:28:52.120Z,2.50
2024-02-15T11:30:58.247Z,2.63
2024-02-15T11:33:01.165Z,2.70
2024-02-15T11:35:12.505Z,2.60
2024-02-15T11:37:49.009Z,2.67
2024-02-15T11:40:01.086Z,2.90
2024-02-15T11:42:30.125Z,2.90
2024-02-15T11:44:33.702Z,2.67
2024-02-15T11:46:40.200Z,1.83
2024-02-15T11:48:42.457Z,2.53
2024-02-15T11:50:46.080Z,2.43
2024-02-15T11:52:50.049Z,2.33
2024-02-15T11:54:52.823Z,2.50
2024-02-15T11:57:06.234Z,2.20
2024-02-15T11:59:09.477Z,2.40
2024-02-15T12:01:31.738Z,2.10
2024-02-15T12:04:00.989Z,2.03
2024-02-15T12:06:28.427Z,2.37
2024-02-15T12:08:49.141Z,2.60
2024-02-15T12:11:17.338Z,2.90
2024-02-15T12:13:37.817Z,3.50
2024-02-15T12:15:58.238Z,4.97
2024-02-15T12:18:33.644Z,4.40
2024-02-15T12:20:38.212Z,3.67
2024-02-15T12:22:43.945Z,3.00
2024-02-15T12:24:47.813Z,2.40
2024-02-15T12:26:51.913Z,2.43
2024-02-15T12:28:57.293Z,2.07
2024-02-15T12:31:00.225Z,2.50
2024-02-15T12:33:11.982Z,2.37
2024-02-15T12:35:18.566Z,2.47
2024-02-15T12:37:24.863Z,2.00
2024-02-15T12:39:26.931Z,2.23
2024-02-15T12:41:32.036Z,2.17
2024-02-15T12:43:35.369Z,2.60
2024-02-15T12:45:39.590Z,1.97
2024-02-15T12:47:42.858Z,2.90
2024-02-15T12:49:45.743Z,3.43
2024-02-15T12:51:52.453Z,2.00
2024-02-15T12:54:10.730Z,2.10
2024-02-15T12:56:22.262Z,2.70
2024-02-15T12:58:27.554Z,2.30
2024-02-15T13:00:32.579Z,2.43
2024-02-15T13:02:35.771Z,2.07
2024-02-15T13:04:39.511Z,2.33
2024-02-15T13:06:42.681Z,2.30
2024-02-15T13:08:49.802Z,2.50
2024-02-15T13:10:54.100Z,2.20
2024-02-15T13:12:58.720Z,2.57
2024-02-15T13:15:00.835Z,3.40
2024-02-15T13:17:04.846Z,3.17
2024-02-15T13:19:08.441Z,2.80
2024-02-15T13:21:11.745Z,2.70
2024-02-15T13:23:20.782Z,3.40
2024-02-15T13:25:23.890Z,2.90
2024-02-15T13:27:28.048Z,2.73
2024-02-15T13:29:30.758Z,2.93
2024-02-15T13:31:36.016Z,3.50
2024-02-15T13:33:39.231Z,3.63
2024-02-15T13:35:45.396Z,2.97
2024-02-15T13:37:50.881Z,3.30
2024-02-15T13:39:53.890Z,3.30
2024-02-15T13:41:57.379Z,3.30
2024-02-15T13:44:01.563Z,3.60
2024-02-15T13:46:04.402Z,4.20
2024-02-15T13:48:08.980Z,4.13
2024-02-15T13:50:15.397Z,4.60
2024-02-15T13:52:18.261Z,4.17
2024-02-15T13:54:20.130Z,3.77
2024-02-15T13:56:23.152Z,3.40
2024-02-15T13:58:25.981Z,3.00
2024-02-15T14:00:34.468Z,2.93
2024-02-15T14:02:37.644Z,2.77
2024-02-15T14:04:40.626Z,3.20
2024-02-15T14:06:45.337Z,3.10
2024-02-15T14:08:48.574Z,3.27
2024-02-15T14:10:51.987Z,5.17
2024-02-15T14:12:59.267Z,3.10
2024-02-15T14:15:02.166Z,2.90
2024-02-15T14:17:06.544Z,2.87
2024-02-15T14:19:09.990Z,2.70
2024-02-15T14:21:17.858Z,2.57
2024-02-15T14:23:20.654Z,2.40
2024-02-15T14:25:23.665Z,2.70
2024-02-15T14:27:25.508Z,2.40
2024-02-15T14:29:34.116Z,2.63
2024-02-15T14:31:54.157Z,2.63
2024-02-15T14:33:57.819Z,6.67
2024-02-15T14:36:01.307Z,3.17
2024-02-15T14:38:07.315Z,2.60
2024-02-15T14:40:10.364Z,2.70
2024-02-15T14:44:19.508Z,4.07
2024-02-15T14:46:22.194Z,8.70
2024-02-15T14:48:25.738Z,4.47
2024-02-15T14:50:30.121Z,2.93
2024-02-15T14:52:33.070Z,2.50
2024-02-15T14:54:37.443Z,2.67
2024-02-15T14:56:41.364Z,3.13
2024-02-15T14:58:44.742Z,2.50
2024-02-15T15:00:48.777Z,2.90
2024-02-15T15:02:52.013Z,3.17
2024-02-15T15:04:59.038Z,2.80
2024-02-15T15:07:20.624Z,2.60
2024-02-15T15:09:41.355Z,2.40
2024-02-15T15:12:01.886Z,2.43
2024-02-15T15:14:06.907Z,2.43
2024-02-15T15:16:15.280Z,3.00
2024-02-15T15:18:17.209Z,3.10
2024-02-15T15:20:20.988Z,2.47
2024-02-15T15:22:25.089Z,3.30
2024-02-15T15:24:27.920Z,3.03
2024-02-15T15:26:32.453Z,3.17
2024-02-15T15:28:36.863Z,3.03
2024-02-15T15:30:39.673Z,3.30
2024-02-15T15:32:42.573Z,3.47
2024-02-15T15:34:45.767Z,3.33
2024-02-15T15:36:49.272Z,2.50
2024-02-15T15:38:53.306Z,3.00
2024-02-15T15:40:56.093Z,3.27
2024-02-15T15:42:58.791Z,3.23
2024-02-15T15:45:01.554Z,3.53
2024-02-15T15:47:06.088Z,3.00
2024-02-15T15:49:09.083Z,2.47
2024-02-15T15:51:12.024Z,2.50
2024-02-15T15:53:14.942Z,2.70
2024-02-15T15:55:20.485Z,3.23
2024-02-15T15:57:22.759Z,3.60
2024-02-15T15:59:25.597Z,5.60
2024-02-15T16:01:29.831Z,10.70
2024-02-15T16:03:33.048Z,12.93
2024-02-15T16:05:35.957Z,15.47
2024-02-15T16:07:39.041Z,8.10
2024-02-15T16:09:43.767Z,7.30
2024-02-15T16:11:48.862Z,4.60
2024-02-15T16:13:51.630Z,5.53
2024-02-15T16:15:56.098Z,10.43
2024-02-15T16:17:59.512Z,7.17
2024-02-15T16:20:05.697Z,4.40
2024-02-15T16:22:08.570Z,4.03
2024-02-15T16:24:12.852Z,3.40
2024-02-15T16:26:15.649Z,2.83
2024-02-15T16:28:19.780Z,2.73
2024-02-15T16:30:22.715Z,2.60
2024-02-15T16:32:24.655Z,2.97
2024-02-15T16:34:27.668Z,2.57
2024-02-15T16:36:30.498Z,2.53
2024-02-15T16:38:34.425Z,2.83
2024-02-15T16:40:37.130Z,2.87
2024-02-15T16:42:43.535Z,2.80
2024-02-15T16:44:48.505Z,2.63
2024-02-15T16:46:50.368Z,3.70
2024-02-15T16:48:53.970Z,4.07
2024-02-15T16:50:59.054Z,4.73
2024-02-15T16:53:02.138Z,7.47
2024-02-15T16:55:07.041Z,7.67
2024-02-15T16:57:15.302Z,7.40
2024-02-15T16:59:19.815Z,7.90
2024-02-15T17:01:23.999Z,7.30
2024-02-15T17:03:27.173Z,6.60
2024-02-15T17:05:30.506Z,5.83
2024-02-15T17:07:33.273Z,5.40
2024-02-15T17:09:36.697Z,3.90
2024-02-15T17:11:40.995Z,3.80
2024-02-15T17:13:45.318Z,2.90
2024-02-15T17:15:48.046Z,3.30
2024-02-15T17:17:51.839Z,3.17
2024-02-15T17:19:54.719Z,4.27
2024-02-15T17:21:57.442Z,3.67
2024-02-15T17:24:00.325Z,3.27
2024-02-15T17:26:05.843Z,2.77
2024-02-15T17:28:10.147Z,2.77
2024-02-15T17:30:13.407Z,2.50
2024-02-15T17:32:16.511Z,2.73
2024-02-15T17:34:21.431Z,2.80
2024-02-15T17:36:24.899Z,2.50
2024-02-15T17:38:27.681Z,2.67
2024-02-15T17:40:30.725Z,3.80
2024-02-15T17:42:32.629Z,5.47
2024-02-15T17:44:35.418Z,6.07
2024-02-15T17:46:38.816Z,4.00
2024-02-15T17:48:42.690Z,3.60
2024-02-15T17:50:46.998Z,3.77
2024-02-15T17:52:49.812Z,3.70
2024-02-15T17:54:52.822Z,2.70
2024-02-15T17:56:56.148Z,3.00
2024-02-15T17:58:58.000Z,3.20
2024-02-15T18:01:00.803Z,2.73
2024-02-15T18:03:02.621Z,3.63
2024-02-15T18:05:08.624Z,4.20
2024-02-15T18:07:14.871Z,5.47
2024-02-15T18:09:18.875Z,8.03
2024-02-15T18:11:22.249Z,8.97
2024-02-15T18:13:25.267Z,12.00
2024-02-15T18:15:33.315Z,12.10
2024-02-15T18:17:36.101Z,11.80
2024-02-15T18:19:39.158Z,9.47
2024-02-15T18:21:45.530Z,8.27
2024-02-15T18:23:49.631Z,7.83
2024-02-15T18:25:54.579Z,7.47
2024-02-15T18:27:57.566Z,7.47
2024-02-15T18:30:00.607Z,9.87
2024-02-15T18:32:03.580Z,17.47
2024-02-15T18:34:09.902Z,19.90
2024-02-15T18:36:13.267Z,12.40
2024-02-15T18:38:16.753Z,14.43
2024-02-15T18:40:25.121Z,19.30
2024-02-15T18:42:28.711Z,14.10
2024-02-15T18:44:31.450Z,12.77
2024-02-15T18:46:41.511Z,13.00
2024-02-15T18:48:45.167Z,16.83
2024-02-15T18:50:48.749Z,20.80
2024-02-15T18:52:51.983Z,13.50
2024-02-15T18:54:58.177Z,10.00
2024-02-15T18:57:02.620Z,8.37
2024-02-15T18:59:07.317Z,6.10
2024-02-15T19:01:11.278Z,5.30
2024-02-15T19:03:14.153Z,3.90
2024-02-15T19:05:16.208Z,4.27
2024-02-15T19:07:19.122Z,6.83
2024-02-15T19:09:21.859Z,7.88
2024-02-15T19:11:27.555Z,6.60
2024-02-15T19:13:31.735Z,11.13
2024-02-15T19:15:34.539Z,6.33
2024-02-15T19:17:38.887Z,4.97
2024-02-15T19:19:41.717Z,4.63
2024-02-15T19:21:44.604Z,5.67
2024-02-15T19:23:47.400Z,4.60
2024-02-15T19:25:50.309Z,5.70
2024-02-15T19:27:55.156Z,7.57
2024-02-15T19:29:59.475Z,5.07
2024-02-15T19:32:02.243Z,5.47
2024-02-15T19:34:05.285Z,4.83
2024-02-15T19:36:09.304Z,4.70
2024-02-15T19:38:12.402Z,4.75
2024-02-15T19:40:18.985Z,4.82
2024-02-15T19:42:23.139Z,6.50
2024-02-15T19:44:26.165Z,5.20
2024-02-15T19:46:33.983Z,6.23
2024-02-15T19:48:36.899Z,5.90
2024-02-15T19:50:39.954Z,5.45
2024-02-15T19:52:43.543Z,6.00
2024-02-15T19:54:46.983Z,5.30
2024-02-15T19:56:50.060Z,4.67
2024-02-15T19:58:56.038Z,4.50
2024-02-15T20:00:58.880Z,4.57
2024-02-15T20:03:05.637Z,4.75
2024-02-15T20:05:09.589Z,5.97
2024-02-15T20:07:12.604Z,5.60
2024-02-15T20:09:18.380Z,4.43
2024-02-15T20:11:27.020Z,4.90
2024-02-15T20:13:29.920Z,5.80
2024-02-15T20:15:34.307Z,8.30
2024-02-15T20:17:36.510Z,8.83
2024-02-15T20:19:40.795Z,7.00
2024-02-15T20:21:43.687Z,10.97
2024-02-15T20:23:46.912Z,12.27
2024-02-15T20:25:49.757Z,12.20
2024-02-15T20:27:54.120Z,6.93
2024-02-15T20:29:57.075Z,5.18
2024-02-15T20:32:00.703Z,4.90
2024-02-15T20:34:05.090Z,4.97
2024-02-15T20:36:10.015Z,5.18
2024-02-15T20:38:17.755Z,4.43
2024-02-15T20:40:20.964Z,4.68
2024-02-15T20:42:24.131Z,3.78
2024-02-15T20:44:27.249Z,4.38
2024-02-15T20:46:30.884Z,4.18
2024-02-15T20:48:33.826Z,3.90
2024-02-15T20:50:36.860Z,4.10
2024-02-15T20:52:41.063Z,3.60
2024-02-15T20:54:45.614Z,3.60
2024-02-15T20:56:49.858Z,3.65
2024-02-15T20:58:52.781Z,4.22
2024-02-15T21:01:03.690Z,5.50
2024-02-15T21:03:07.889Z,4.82
2024-02-15T21:05:10.478Z,3.45
2024-02-15T21:07:13.739Z,3.53
2024-02-15T21:09:45.454Z,3.50
2024-02-15T21:14:44.825Z,2.63
2024-02-15T21:17:08.873Z,3.03
2024-02-15T21:19:12.983Z,3.25
2024-02-15T21:21:16.613Z,3.20
2024-02-15T21:23:19.592Z,2.92
2024-02-15T21:25:23.853Z,3.10
2024-02-15T21:27:25.781Z,3.20
2024-02-15T21:29:28.533Z,3.00
2024-02-15T21:31:31.400Z,2.75
2024-02-15T21:33:35.075Z,2.60
2024-02-15T21:35:37.948Z,2.78
2024-02-15T21:37:40.695Z,3.22
2024-02-15T21:39:43.768Z,3.60
2024-02-15T21:41:49.645Z,3.20
2024-02-15T21:43:52.500Z,4.07
2024-02-15T21:45:58.363Z,4.55
2024-02-15T21:48:04.309Z,4.43
2024-02-15T21:50:08.128Z,4.10
2024-02-15T21:52:11.498Z,4.72
2024-02-15T21:54:15.637Z,4.10
2024-02-15T21:56:20.141Z,3.58
2024-02-15T21:58:24.369Z,3.80
2024-02-15T22:00:26.829Z,2.90
2024-02-15T22:02:29.815Z,2.88
2024-02-15T22:04:31.646Z,2.90
2024-02-15T22:06:34.616Z,3.10
2024-02-15T22:08:37.478Z,2.45
2024-02-15T22:10:44.243Z,3.08
2024-02-15T22:12:47.082Z,2.70
2024-02-15T22:14:53.802Z,2.33
2024-02-15T22:16:56.813Z,2.55
2024-02-15T22:19:01.134Z,2.72
2024-02-15T22:21:05.245Z,2.92
2024-02-15T22:23:08.486Z,2.78
2024-02-15T22:25:11.796Z,2.75
2024-02-15T22:27:16.426Z,2.53
2024-02-15T22:29:19.787Z,2.83
2024-02-15T22:31:24.409Z,2.97
2024-02-15T22:33:28.377Z,2.60
2024-02-15T22:35:31.255Z,3.00
2024-02-15T22:37:34.808Z,2.72
2024-02-15T22:39:37.712Z,2.72
2024-02-15T22:41:40.713Z,2.80
2024-02-15T22:43:45.578Z,2.78
2024-02-15T22:45:49.090Z,2.90
2024-02-15T22:47:53.427Z,2.72
2024-02-15T22:49:57.078Z,2.85
2024-02-15T22:52:01.919Z,2.90
2024-02-15T22:54:05.397Z,2.67
2024-02-15T22:56:10.317Z,2.88
2024-02-15T22:58:13.217Z,2.60
2024-02-15T23:00:15.939Z,2.70
2024-02-15T23:02:18.860Z,2.90
2024-02-15T23:04:23.084Z,4.25
2024-02-15T23:06:26.045Z,16.02
2024-02-15T23:08:29.342Z,9.95
2024-02-15T23:10:32.162Z,5.95
2024-02-15T23:12:36.993Z,3.40
2024-02-15T23:14:39.895Z,3.20
2024-02-15T23:16:43.241Z,3.00
2024-02-15T23:18:46.314Z,3.03
2024-02-15T23:20:51.339Z,2.70
2024-02-15T23:22:54.176Z,3.63
2024-02-15T23:24:59.873Z,3.00
2024-02-15T23:27:03.956Z,2.70
2024-02-15T23:29:07.363Z,2.72
2024-02-15T23:31:13.460Z,3.22
2024-02-15T23:33:20.131Z,2.63
2024-02-15T23:35:31.751Z,2.42
2024-02-15T23:37:53.351Z,2.95
2024-02-15T23:40:13.741Z,2.72
2024-02-15T23:42:16.906Z,2.50
2024-02-15T23:44:21.089Z,2.60
2024-02-15T23:46:23.899Z,2.50
2024-02-15T23:48:28.079Z,2.53
2024-02-15T23:50:33.784Z,2.40
2024-02-15T23:52:38.720Z,2.40
2024-02-15T23:54:41.676Z,2.40
2024-02-15T23:56:44.947Z,2.30
2024-02-15T23:58:47.941Z,2.30
